createdAt,value
2022-12-29T00:01:06.282Z,-0.70
2022-12-29T00:03:35.623Z,-0.70
2022-12-29T00:06:05.062Z,-0.70
2022-12-29T00:08:41.036Z,-0.70
2022-12-29T00:11:18.838Z,-0.70
2022-12-29T00:14:07.671Z,-0.70
2022-12-29T00:16:38.158Z,-0.80
2022-12-29T00:19:07.447Z,-0.80
2022-12-29T00:21:55.442Z,-0.90
2022-12-29T00:24:27.530Z,-1.00
2022-12-29T00:27:31.745Z,-1.00
2022-12-29T00:30:19.279Z,-1.00
2022-12-29T00:33:06.897Z,-1.00
2022-12-29T00:35:46.378Z,-1.10
2022-12-29T00:38:34.597Z,-1.10
2022-12-29T00:41:22.905Z,-1.10
2022-12-29T00:44:07.127Z,-1.20
2022-12-29T00:46:39.168Z,-1.20
2022-12-29T00:49:31.339Z,-1.20
2022-12-29T00:52:10.911Z,-1.30
2022-12-29T00:54:42.108Z,-1.30
2022-12-29T00:57:13.291Z,-1.40
2022-12-29T00:59:43.714Z,-1.50
2022-12-29T01:02:13.179Z,-1.60
2022-12-29T01:04:42.577Z,-1.60
2022-12-29T01:07:11.795Z,-1.70
2022-12-29T01:09:59.515Z,-1.70
2022-12-29T01:12:48.425Z,-1.70
2022-12-29T01:15:17.761Z,-1.70
2022-12-29T01:17:48.000Z,-1.70
2022-12-29T01:20:17.374Z,-1.70
2022-12-29T01:22:48.330Z,-1.70
2022-12-29T01:25:17.611Z,-1.60
2022-12-29T01:27:47.503Z,-1.50
2022-12-29T01:30:16.799Z,-1.50
2022-12-29T01:32:47.623Z,-1.50
2022-12-29T01:35:17.033Z,-1.50
2022-12-29T01:37:47.528Z,-1.50
2022-12-29T01:40:18.105Z,-1.40
2022-12-29T01:42:47.633Z,-1.20
2022-12-29T01:45:19.237Z,-1.10
2022-12-29T01:48:05.752Z,-1.00
2022-12-29T01:50:47.145Z,-0.90
2022-12-29T01:53:37.141Z,-0.80
2022-12-29T01:56:13.122Z,-0.60
2022-12-29T01:58:48.919Z,-0.50
2022-12-29T02:01:22.317Z,-0.30
2022-12-29T02:03:52.831Z,-0.20
2022-12-29T02:06:30.673Z,0.00
2022-12-29T02:09:01.037Z,0.10
2022-12-29T02:11:32.283Z,0.10
2022-12-29T02:14:03.920Z,0.10
2022-12-29T02:16:53.560Z,0.30
2022-12-29T02:20:01.485Z,0.30
2022-12-29T02:22:37.933Z,0.40
2022-12-29T02:25:25.101Z,0.50
2022-12-29T02:28:15.284Z,0.60
2022-12-29T02:31:01.994Z,0.60
2022-12-29T02:33:52.969Z,0.60
2022-12-29T02:37:03.728Z,0.70
2022-12-29T02:39:58.196Z,0.70
2022-12-29T02:42:53.099Z,0.70
2022-12-29T02:45:34.528Z,0.80
2022-12-29T02:48:53.864Z,0.80
2022-12-29T02:51:30.317Z,0.90
2022-12-29T02:54:19.791Z,0.90
2022-12-29T02:56:50.544Z,0.80
2022-12-29T02:59:20.920Z,0.80
2022-12-29T03:02:37.166Z,0.80
2022-12-29T03:05:50.320Z,1.00
2022-12-29T03:08:55.346Z,0.90
2022-12-29T03:11:58.136Z,0.80
2022-12-29T03:15:27.555Z,0.70
2022-12-29T03:18:11.357Z,0.80
2022-12-29T03:21:48.495Z,0.90
2022-12-29T03:24:32.270Z,1.00
2022-12-29T03:27:07.567Z,1.10
2022-12-29T03:29:53.356Z,1.10
2022-12-29T03:32:37.955Z,1.10
2022-12-29T03:35:11.423Z,1.20
2022-12-29T03:37:51.105Z,1.20
2022-12-29T03:40:24.591Z,1.30
2022-12-29T03:42:56.273Z,1.30
2022-12-29T03:45:25.957Z,1.30
2022-12-29T03:47:55.416Z,1.40
2022-12-29T03:50:24.624Z,1.40
2022-12-29T03:52:54.175Z,1.40
2022-12-29T03:55:23.457Z,1.50
2022-12-29T03:57:52.733Z,1.50
2022-12-29T04:00:32.070Z,1.50
2022-12-29T04:03:01.902Z,1.50
2022-12-29T04:05:32.208Z,1.50
2022-12-29T04:08:02.093Z,1.60
2022-12-29T04:10:31.362Z,1.60
2022-12-29T04:13:03.133Z,1.60
2022-12-29T04:15:32.726Z,1.70
2022-12-29T04:18:02.190Z,1.70
2022-12-29T04:20:50.296Z,1.70
2022-12-29T04:23:19.905Z,1.80
2022-12-29T04:25:49.462Z,1.80
2022-12-29T04:28:19.203Z,1.80
2022-12-29T04:31:07.363Z,1.80
2022-12-29T04:33:39.245Z,1.90
2022-12-29T04:36:09.664Z,1.90
2022-12-29T04:38:40.359Z,1.90
2022-12-29T04:41:09.724Z,1.90
2022-12-29T04:43:41.679Z,1.90
2022-12-29T04:46:20.317Z,1.80
2022-12-29T04:49:05.759Z,1.80
2022-12-29T04:52:01.247Z,1.70
2022-12-29T04:54:30.814Z,1.70
2022-12-29T04:57:18.798Z,1.80
2022-12-29T04:59:53.000Z,1.80
2022-12-29T05:02:22.290Z,1.90
2022-12-29T05:04:53.323Z,2.00
2022-12-29T05:07:22.689Z,2.00
2022-12-29T05:09:51.963Z,2.10
2022-12-29T05:12:21.226Z,2.10
2022-12-29T05:15:03.798Z,2.10
2022-12-29T05:17:34.341Z,2.10
2022-12-29T05:20:06.473Z,2.10
2022-12-29T05:22:37.429Z,2.10
2022-12-29T05:25:08.871Z,2.00
2022-12-29T05:27:49.194Z,2.00
2022-12-29T05:30:24.402Z,2.10
2022-12-29T05:32:53.899Z,2.10
2022-12-29T05:35:23.313Z,2.10
2022-12-29T05:37:52.555Z,2.10
2022-12-29T05:40:22.221Z,2.10
2022-12-29T05:42:51.506Z,2.20
2022-12-29T05:45:38.159Z,2.10
2022-12-29T05:48:25.929Z,2.10
2022-12-29T05:51:19.838Z,2.00
2022-12-29T05:53:51.452Z,1.90
2022-12-29T05:56:21.002Z,1.80
2022-12-29T05:58:56.865Z,1.80
2022-12-29T06:01:27.091Z,1.80
2022-12-29T06:03:57.115Z,1.80
2022-12-29T06:06:26.479Z,1.90
2022-12-29T06:08:55.885Z,1.90
2022-12-29T06:11:25.161Z,1.90
2022-12-29T06:14:00.045Z,2.00
2022-12-29T06:16:29.396Z,2.00
2022-12-29T06:19:01.695Z,2.00
2022-12-29T06:21:31.057Z,2.10
2022-12-29T06:24:03.200Z,2.10
2022-12-29T06:26:32.514Z,2.10
2022-12-29T06:29:02.798Z,2.10
2022-12-29T06:31:32.292Z,2.10
2022-12-29T06:34:07.956Z,2.10
2022-12-29T06:36:37.678Z,2.00
2022-12-29T06:39:07.638Z,2.00
2022-12-29T06:41:37.477Z,2.00
2022-12-29T06:44:12.323Z,2.10
2022-12-29T06:47:03.772Z,2.20
2022-12-29T06:49:33.000Z,2.20
2022-12-29T06:52:09.093Z,2.30
2022-12-29T06:54:42.070Z,2.30
2022-12-29T06:57:14.356Z,2.20
2022-12-29T06:59:43.668Z,2.20
2022-12-29T07:02:15.542Z,2.30
2022-12-29T07:04:45.202Z,2.30
2022-12-29T07:07:14.482Z,2.40
2022-12-29T07:09:43.692Z,2.50
2022-12-29T07:12:13.241Z,2.60
2022-12-29T07:14:43.799Z,2.70
2022-12-29T07:17:13.052Z,2.80
2022-12-29T07:19:42.341Z,2.90
2022-12-29T07:22:11.586Z,2.90
2022-12-29T07:24:41.098Z,2.90
2022-12-29T07:27:10.733Z,3.00
2022-12-29T07:29:41.066Z,3.00
2022-12-29T07:32:10.323Z,3.00
2022-12-29T07:34:40.773Z,3.10
2022-12-29T07:37:09.996Z,3.20
2022-12-29T07:39:39.456Z,3.30
2022-12-29T07:42:08.770Z,3.30
2022-12-29T07:44:45.115Z,3.30
2022-12-29T07:47:33.372Z,3.40
2022-12-29T07:50:03.546Z,3.50
2022-12-29T07:52:33.001Z,3.50
2022-12-29T07:55:02.450Z,3.40
2022-12-29T07:57:32.854Z,3.40
2022-12-29T08:00:02.385Z,3.40
2022-12-29T08:02:41.377Z,3.30
2022-12-29T08:05:10.760Z,3.30
2022-12-29T08:07:40.052Z,3.30
2022-12-29T08:10:09.593Z,3.40
2022-12-29T08:12:42.988Z,3.50
2022-12-29T08:15:13.481Z,3.60
2022-12-29T08:17:42.734Z,3.50
2022-12-29T08:20:12.037Z,3.60
2022-12-29T08:22:41.782Z,3.60
2022-12-29T08:25:11.095Z,3.60
2022-12-29T08:27:40.341Z,3.70
2022-12-29T08:30:10.782Z,3.70
2022-12-29T08:32:40.076Z,3.70
2022-12-29T08:35:09.900Z,3.80
2022-12-29T08:37:39.165Z,3.90
2022-12-29T08:40:09.461Z,3.90
2022-12-29T08:42:38.751Z,4.00
2022-12-29T08:45:09.768Z,4.00
2022-12-29T08:47:39.121Z,4.10
2022-12-29T08:50:08.633Z,4.10
2022-12-29T08:52:37.857Z,4.20
2022-12-29T08:55:07.549Z,4.20
2022-12-29T08:57:36.822Z,4.20
2022-12-29T09:00:11.670Z,4.20
2022-12-29T09:02:41.561Z,4.30
2022-12-29T09:05:11.199Z,4.30
2022-12-29T09:07:41.123Z,4.30
2022-12-29T09:10:10.488Z,4.20
2022-12-29T09:12:39.773Z,4.20
2022-12-29T09:15:09.854Z,4.20
2022-12-29T09:17:48.116Z,4.30
2022-12-29T09:20:20.480Z,4.50
2022-12-29T09:22:50.413Z,4.50
2022-12-29T09:25:19.727Z,4.60
2022-12-29T09:27:49.176Z,4.70
2022-12-29T09:30:19.616Z,4.60
2022-12-29T09:32:54.830Z,4.50
2022-12-29T09:35:24.532Z,4.50
2022-12-29T09:37:53.843Z,4.50
2022-12-29T09:40:34.113Z,4.40
2022-12-29T09:43:27.618Z,4.50
2022-12-29T09:46:27.408Z,4.60
2022-12-29T09:49:25.725Z,4.70
2022-12-29T09:52:04.425Z,4.70
2022-12-29T09:55:18.130Z,4.70
2022-12-29T09:58:06.894Z,4.80
2022-12-29T10:00:55.105Z,4.90
2022-12-29T10:03:37.773Z,4.90
2022-12-29T10:06:18.530Z,4.90
2022-12-29T10:09:02.347Z,5.00
2022-12-29T10:11:43.391Z,5.10
2022-12-29T10:14:44.805Z,5.20
2022-12-29T10:18:39.620Z,5.30
2022-12-29T10:21:24.059Z,5.40
2022-12-29T10:23:55.401Z,5.50
2022-12-29T10:26:30.373Z,5.60
2022-12-29T10:29:06.545Z,5.60
2022-12-29T10:31:44.901Z,5.60
2022-12-29T10:34:39.292Z,5.70
2022-12-29T10:37:48.584Z,5.80
2022-12-29T10:40:24.363Z,5.90
2022-12-29T10:42:56.862Z,6.00
2022-12-29T10:45:32.031Z,6.00
2022-12-29T10:48:13.975Z,6.10
2022-12-29T10:50:44.160Z,6.20
2022-12-29T10:53:23.660Z,6.20
2022-12-29T10:55:54.607Z,6.20
2022-12-29T10:58:26.381Z,6.30
2022-12-29T11:00:56.318Z,6.30
2022-12-29T11:03:37.160Z,6.40
2022-12-29T11:06:19.925Z,6.50
2022-12-29T11:09:03.521Z,6.70
2022-12-29T11:11:38.252Z,6.80
2022-12-29T11:14:31.965Z,6.90
2022-12-29T11:17:04.823Z,7.10
2022-12-29T11:19:40.766Z,7.10
2022-12-29T11:22:25.122Z,7.10
2022-12-29T11:25:05.846Z,7.00
2022-12-29T11:27:35.051Z,7.00
2022-12-29T11:30:24.690Z,7.10
2022-12-29T11:32:56.415Z,7.20
2022-12-29T11:35:51.881Z,7.10
2022-12-29T11:38:34.906Z,7.10
2022-12-29T11:41:07.748Z,7.00
2022-12-29T11:43:43.947Z,7.00
2022-12-29T11:46:23.950Z,7.00
2022-12-29T11:48:53.712Z,7.10
2022-12-29T11:51:28.000Z,7.10
2022-12-29T11:54:04.603Z,7.10
2022-12-29T11:56:41.222Z,7.10
2022-12-29T11:59:30.954Z,7.10
2022-12-29T12:02:16.359Z,7.10
2022-12-29T12:04:46.491Z,7.00
2022-12-29T12:07:25.273Z,7.00
2022-12-29T12:10:09.820Z,7.00
2022-12-29T12:13:17.138Z,7.00
2022-12-29T12:15:58.906Z,6.90
2022-12-29T12:18:48.499Z,6.80
2022-12-29T12:21:31.615Z,6.80
2022-12-29T12:24:31.517Z,6.70
2022-12-29T12:27:25.334Z,6.60
2022-12-29T12:30:04.972Z,6.50
2022-12-29T12:33:24.920Z,6.50
2022-12-29T12:36:28.627Z,6.50
2022-12-29T12:39:11.791Z,6.50
2022-12-29T12:42:08.647Z,6.50
2022-12-29T12:44:59.458Z,6.50
2022-12-29T12:47:34.714Z,6.40
2022-12-29T12:50:23.834Z,6.40
2022-12-29T12:53:40.809Z,6.40
2022-12-29T12:56:47.301Z,6.40
2022-12-29T12:59:43.888Z,6.40
2022-12-29T13:02:28.230Z,6.40
2022-12-29T13:05:26.536Z,6.40
2022-12-29T13:08:55.173Z,6.40
2022-12-29T13:12:20.269Z,6.40
2022-12-29T13:15:14.293Z,6.40
2022-12-29T13:18:22.019Z,6.40
2022-12-29T13:21:11.441Z,6.30
2022-12-29T13:24:02.240Z,6.30
2022-12-29T13:26:48.995Z,6.30
2022-12-29T13:29:58.899Z,6.30
2022-12-29T13:33:22.522Z,6.30
2022-12-29T13:36:11.072Z,6.40
2022-12-29T13:39:03.823Z,6.30
2022-12-29T13:41:42.286Z,6.20
2022-12-29T13:44:38.400Z,6.10
2022-12-29T13:47:49.263Z,6.20
2022-12-29T13:50:24.109Z,6.20
2022-12-29T13:53:05.418Z,6.20
2022-12-29T13:56:12.003Z,6.20
2022-12-29T13:58:41.268Z,6.30
2022-12-29T14:02:04.645Z,6.30
2022-12-29T14:04:36.068Z,6.20
2022-12-29T14:07:15.894Z,6.00
2022-12-29T14:09:58.679Z,6.00
2022-12-29T14:12:44.455Z,6.00
2022-12-29T14:15:13.689Z,6.00
2022-12-29T14:18:06.576Z,6.00
2022-12-29T14:20:37.014Z,6.00
2022-12-29T14:23:12.419Z,5.90
2022-12-29T14:26:08.137Z,5.90
2022-12-29T14:28:41.766Z,5.90
2022-12-29T14:31:19.848Z,5.80
2022-12-29T14:34:07.709Z,5.80
2022-12-29T14:36:54.279Z,5.70
2022-12-29T14:39:41.262Z,5.60
2022-12-29T14:42:10.429Z,5.40
2022-12-29T14:44:53.784Z,5.30
2022-12-29T14:47:33.213Z,5.30
2022-12-29T14:50:22.970Z,5.30
2022-12-29T14:53:05.126Z,5.30
2022-12-29T14:55:49.294Z,5.30
2022-12-29T14:58:37.718Z,5.20
2022-12-29T15:01:25.753Z,5.10
2022-12-29T15:04:03.923Z,5.10
2022-12-29T15:06:37.442Z,5.00
2022-12-29T15:09:38.267Z,5.00
2022-12-29T15:12:36.878Z,4.90
2022-12-29T15:15:29.467Z,4.60
2022-12-29T15:18:14.612Z,4.30
2022-12-29T15:20:44.309Z,4.10
2022-12-29T15:23:17.278Z,3.90
2022-12-29T15:25:59.980Z,3.80
2022-12-29T15:28:45.233Z,3.80
2022-12-29T15:31:29.973Z,3.90
2022-12-29T15:34:13.143Z,4.00
2022-12-29T15:36:42.679Z,4.10
2022-12-29T15:39:29.578Z,4.10
2022-12-29T15:42:30.844Z,4.00
2022-12-29T15:45:11.186Z,4.00
2022-12-29T15:47:45.533Z,3.80
2022-12-29T15:50:23.676Z,3.80
2022-12-29T15:52:53.286Z,3.80
2022-12-29T15:55:42.743Z,3.90
2022-12-29T15:58:30.483Z,4.00
2022-12-29T16:01:02.284Z,4.00
2022-12-29T16:03:35.188Z,4.00
2022-12-29T16:06:29.304Z,4.00
2022-12-29T16:08:59.373Z,3.90
2022-12-29T16:11:39.275Z,3.80
2022-12-29T16:14:22.560Z,3.80
2022-12-29T16:16:52.063Z,3.80
2022-12-29T16:19:34.890Z,3.80
2022-12-29T16:22:12.182Z,3.70
2022-12-29T16:24:41.740Z,3.50
2022-12-29T16:27:16.750Z,3.30
2022-12-29T16:29:46.133Z,3.20
2022-12-29T16:32:30.064Z,3.00
2022-12-29T16:35:17.735Z,2.90
2022-12-29T16:37:47.622Z,2.70
2022-12-29T16:40:23.245Z,2.70
2022-12-29T16:42:57.974Z,2.50
2022-12-29T16:45:45.907Z,2.50
2022-12-29T16:48:15.091Z,2.40
2022-12-29T16:50:45.880Z,2.30
2022-12-29T16:53:31.337Z,2.20
2022-12-29T16:56:14.324Z,2.20
2022-12-29T16:58:49.210Z,2.10
2022-12-29T17:01:20.312Z,2.00
2022-12-29T17:03:58.104Z,1.90
2022-12-29T17:06:27.284Z,1.80
2022-12-29T17:08:57.751Z,1.80
2022-12-29T17:11:59.293Z,1.70
2022-12-29T17:14:53.027Z,1.70
2022-12-29T17:17:32.472Z,1.70
2022-12-29T17:20:23.424Z,1.60
2022-12-29T17:22:54.181Z,1.50
2022-12-29T17:25:33.638Z,1.50
2022-12-29T17:28:07.543Z,1.40
2022-12-29T17:30:36.808Z,1.30
2022-12-29T17:33:09.919Z,1.30
2022-12-29T17:35:39.034Z,1.30
2022-12-29T17:38:23.916Z,1.30
2022-12-29T17:40:53.032Z,1.30
2022-12-29T17:43:22.381Z,1.30
2022-12-29T17:45:57.482Z,1.30
2022-12-29T17:48:26.652Z,1.40
2022-12-29T17:50:58.064Z,1.60
2022-12-29T17:53:30.049Z,1.80
2022-12-29T17:55:59.283Z,1.90
2022-12-29T17:58:31.364Z,2.10
2022-12-29T18:01:03.013Z,2.20
2022-12-29T18:03:35.118Z,2.30
2022-12-29T18:06:08.920Z,2.40
2022-12-29T18:08:39.900Z,2.30
2022-12-29T18:11:23.295Z,2.20
2022-12-29T18:13:55.999Z,2.00
2022-12-29T18:16:25.395Z,1.80
2022-12-29T18:18:54.688Z,1.70
2022-12-29T18:21:25.199Z,1.80
2022-12-29T18:23:54.306Z,1.90
2022-12-29T18:26:28.990Z,2.10
2022-12-29T18:28:59.115Z,2.20
2022-12-29T18:31:32.995Z,2.40
2022-12-29T18:34:07.785Z,2.50
2022-12-29T18:36:36.877Z,2.60
2022-12-29T18:39:06.048Z,2.60
2022-12-29T18:41:35.202Z,2.60
2022-12-29T18:44:04.328Z,2.60
2022-12-29T18:46:33.523Z,2.60
2022-12-29T18:49:02.637Z,2.60
2022-12-29T18:51:31.823Z,2.50
2022-12-29T18:54:01.144Z,2.40
2022-12-29T18:56:30.228Z,2.30
2022-12-29T18:58:59.291Z,2.10
2022-12-29T19:01:28.665Z,1.90
2022-12-29T19:03:57.907Z,1.80
2022-12-29T19:06:26.963Z,1.70
2022-12-29T19:08:56.098Z,1.60
2022-12-29T19:11:26.138Z,1.50
2022-12-29T19:13:55.309Z,1.50
2022-12-29T19:16:27.236Z,1.40
2022-12-29T19:19:08.865Z,1.30
2022-12-29T19:21:38.911Z,1.30
2022-12-29T19:24:08.137Z,1.20
2022-12-29T19:26:39.659Z,1.20
2022-12-29T19:29:14.991Z,1.10
2022-12-29T19:31:44.226Z,1.00
2022-12-29T19:34:15.028Z,1.00
2022-12-29T19:36:45.703Z,0.90
2022-12-29T19:39:14.872Z,0.90
2022-12-29T19:41:43.933Z,0.80
2022-12-29T19:44:13.016Z,0.80
2022-12-29T19:46:42.198Z,0.80
2022-12-29T19:49:11.776Z,0.70
2022-12-29T19:51:40.882Z,0.70
2022-12-29T19:54:10.141Z,0.70
2022-12-29T19:56:42.956Z,0.60
2022-12-29T19:59:12.045Z,0.60
2022-12-29T20:01:41.254Z,0.50
2022-12-29T20:04:10.489Z,0.60
2022-12-29T20:06:39.555Z,0.60
2022-12-29T20:09:08.856Z,0.50
2022-12-29T20:11:38.040Z,0.50
2022-12-29T20:14:08.182Z,0.40
2022-12-29T20:16:54.759Z,0.40
2022-12-29T20:19:30.567Z,0.30
2022-12-29T20:21:59.886Z,0.30
2022-12-29T20:24:30.287Z,0.30
2022-12-29T20:27:00.682Z,0.30
2022-12-29T20:29:38.902Z,0.30
2022-12-29T20:32:20.395Z,0.30
2022-12-29T20:34:49.573Z,0.30
2022-12-29T20:37:19.156Z,0.40
2022-12-29T20:39:48.390Z,0.50
2022-12-29T20:42:18.016Z,0.60
2022-12-29T20:44:47.243Z,0.70
2022-12-29T20:47:16.358Z,0.80
2022-12-29T20:49:45.609Z,0.70
2022-12-29T20:52:14.908Z,0.90
2022-12-29T20:54:45.361Z,1.00
2022-12-29T20:57:14.458Z,1.20
2022-12-29T20:59:43.552Z,1.30
2022-12-29T21:02:21.215Z,1.40
2022-12-29T21:05:22.767Z,1.40
2022-12-29T21:07:41.817Z,1.60
2022-12-29T21:10:11.009Z,1.70
2022-12-29T21:12:40.166Z,1.80
2022-12-29T21:15:10.302Z,1.90
2022-12-29T21:17:39.419Z,1.90
2022-12-29T21:20:09.121Z,1.90
2022-12-29T21:22:38.242Z,1.90
2022-12-29T21:25:07.591Z,1.90
2022-12-29T21:27:36.683Z,1.80
2022-12-29T21:30:06.280Z,1.80
2022-12-29T21:32:35.645Z,1.60
2022-12-29T21:35:05.059Z,1.50
2022-12-29T21:37:34.784Z,1.30
2022-12-29T21:40:04.739Z,1.20
2022-12-29T21:42:34.487Z,1.10
2022-12-29T21:45:22.466Z,1.00
2022-12-29T21:48:10.897Z,1.00
2022-12-29T21:50:59.874Z,1.00
2022-12-29T21:53:39.021Z,0.90
2022-12-29T21:56:12.760Z,0.90
2022-12-29T21:59:03.478Z,0.90
2022-12-29T22:01:54.136Z,0.90
2022-12-29T22:04:43.825Z,0.90
2022-12-29T22:07:31.598Z,0.90
2022-12-29T22:10:19.064Z,0.90
2022-12-29T22:13:00.411Z,0.90
2022-12-29T22:15:32.372Z,0.70
2022-12-29T22:18:02.420Z,0.70
2022-12-29T22:20:35.054Z,0.70
2022-12-29T22:23:04.352Z,0.60
2022-12-29T22:25:33.666Z,0.60
2022-12-29T22:28:02.846Z,0.50
2022-12-29T22:30:32.755Z,0.40
2022-12-29T22:33:02.194Z,0.30
2022-12-29T22:35:31.396Z,0.40
2022-12-29T22:38:00.499Z,0.40
2022-12-29T22:40:29.631Z,0.50
2022-12-29T22:42:58.709Z,0.50
2022-12-29T22:45:27.822Z,0.60
2022-12-29T22:47:56.909Z,0.60
2022-12-29T22:50:25.990Z,0.60
2022-12-29T22:52:55.077Z,0.50
2022-12-29T22:55:24.269Z,0.50
2022-12-29T22:57:53.495Z,0.50
2022-12-29T23:00:22.678Z,0.50
2022-12-29T23:02:51.964Z,0.40
2022-12-29T23:05:21.201Z,0.40
2022-12-29T23:07:50.317Z,0.40
2022-12-29T23:10:19.464Z,0.40
2022-12-29T23:12:48.664Z,0.40
2022-12-29T23:15:18.501Z,0.40
2022-12-29T23:17:47.662Z,0.40
2022-12-29T23:20:16.842Z,0.40
2022-12-29T23:22:45.952Z,0.40
2022-12-29T23:25:15.181Z,0.40
2022-12-29T23:27:44.284Z,0.40
2022-12-29T23:30:13.377Z,0.30
2022-12-29T23:32:42.441Z,0.30
2022-12-29T23:35:11.766Z,0.20
2022-12-29T23:37:40.858Z,0.20
2022-12-29T23:40:10.507Z,0.20
2022-12-29T23:42:39.632Z,0.20
2022-12-29T23:45:10.293Z,0.10
2022-12-29T23:47:39.416Z,0.10
2022-12-29T23:50:09.042Z,0.10
2022-12-29T23:52:38.334Z,0.20
2022-12-29T23:55:08.198Z,0.20
2022-12-29T23:57:37.337Z,0.20
